createdAt,value
2023-05-10T00:01:48.223Z,100734.97
2023-05-10T00:04:16.288Z,100735.22
2023-05-10T00:06:44.237Z,100735.50
2023-05-10T00:09:12.161Z,100729.91
2023-05-10T00:11:41.502Z,100731.63
2023-05-10T00:14:09.403Z,100733.63
2023-05-10T00:16:37.470Z,100724.94
2023-05-10T00:19:05.528Z,100713.13
2023-05-10T00:21:34.682Z,100723.97
2023-05-10T00:24:02.706Z,100717.53
2023-05-10T00:26:30.625Z,100720.00
2023-05-10T00:28:59.907Z,100707.03
2023-05-10T00:31:27.954Z,100710.66
2023-05-10T00:33:55.895Z,100705.94
2023-05-10T00:36:24.016Z,100706.53
2023-05-10T00:38:51.919Z,100702.00
2023-05-10T00:41:19.870Z,100698.66
2023-05-10T00:43:47.752Z,100697.59
2023-05-10T00:46:17.882Z,100691.44
2023-05-10T00:48:46.353Z,100687.53
2023-05-10T00:51:14.743Z,100697.13
2023-05-10T00:53:42.907Z,100687.56
2023-05-10T00:56:11.539Z,100683.31
2023-05-10T00:58:39.496Z,100691.25
2023-05-10T01:01:07.959Z,100689.81
2023-05-10T01:03:37.321Z,100689.84
2023-05-10T01:06:05.627Z,100685.63
2023-05-10T01:08:33.666Z,100680.84
2023-05-10T01:11:01.676Z,100679.47
2023-05-10T01:13:34.085Z,100674.69
2023-05-10T01:16:03.508Z,100680.34
2023-05-10T01:18:32.312Z,100675.22
2023-05-10T01:21:08.813Z,100674.69
2023-05-10T01:24:03.450Z,100673.59
2023-05-10T01:26:47.341Z,100672.16
2023-05-10T01:29:28.446Z,100667.97
2023-05-10T01:32:24.590Z,100669.66
2023-05-10T01:34:58.488Z,100681.47
2023-05-10T01:37:34.049Z,100681.47
2023-05-10T01:40:08.101Z,100675.84
2023-05-10T01:42:41.463Z,100672.50
2023-05-10T01:45:14.320Z,100675.88
2023-05-10T01:47:45.417Z,100671.38
2023-05-10T01:50:18.216Z,100671.41
2023-05-10T01:52:51.555Z,100670.28
2023-05-10T01:55:22.640Z,100661.81
2023-05-10T01:57:53.676Z,100662.38
2023-05-10T02:00:22.377Z,100665.78
2023-05-10T02:02:52.057Z,100668.00
2023-05-10T02:05:20.597Z,100664.06
2023-05-10T02:07:49.273Z,100666.88
2023-05-10T02:10:18.293Z,100664.66
2023-05-10T02:12:48.572Z,100658.19
2023-05-10T02:15:21.117Z,100662.41
2023-05-10T02:17:49.449Z,100668.28
2023-05-10T02:20:19.570Z,100668.88
2023-05-10T02:22:47.932Z,100663.53
2023-05-10T02:25:16.653Z,100672.81
2023-05-10T02:27:45.533Z,100663.53
2023-05-10T02:30:14.107Z,100661.31
2023-05-10T02:32:42.499Z,100667.47
2023-05-10T02:35:11.183Z,100659.06
2023-05-10T02:37:40.902Z,100665.47
2023-05-10T02:40:10.097Z,100664.09
2023-05-10T02:42:39.699Z,100660.16
2023-05-10T02:45:10.791Z,100660.16
2023-05-10T02:47:38.701Z,100654.53
2023-05-10T02:50:07.584Z,100648.91
2023-05-10T02:52:43.842Z,100652.03
2023-05-10T02:55:14.898Z,100650.31
2023-05-10T02:57:48.602Z,100651.66
2023-05-10T03:00:17.076Z,100657.31
2023-05-10T03:02:45.286Z,100652.56
2023-05-10T03:05:13.243Z,100658.69
2023-05-10T03:07:41.152Z,100651.09
2023-05-10T03:10:11.520Z,100652.78
2023-05-10T03:12:55.221Z,100654.47
2023-05-10T03:15:30.743Z,100647.19
2023-05-10T03:18:03.781Z,100644.09
2023-05-10T03:20:35.526Z,100642.16
2023-05-10T03:23:07.184Z,100650.56
2023-05-10T03:25:36.661Z,100649.41
2023-05-10T03:28:06.089Z,100651.06
2023-05-10T03:30:34.319Z,100647.97
2023-05-10T03:33:06.907Z,100652.22
2023-05-10T03:35:34.877Z,100647.66
2023-05-10T03:38:02.787Z,100644.31
2023-05-10T03:40:32.797Z,100641.44
2023-05-10T03:43:02.120Z,100644.84
2023-05-10T03:45:30.058Z,100645.69
2023-05-10T03:47:58.002Z,100649.88
2023-05-10T03:50:26.104Z,100650.47
2023-05-10T03:52:54.865Z,100655.53
2023-05-10T03:55:23.485Z,100661.13
2023-05-10T03:57:51.597Z,100663.38
2023-05-10T04:00:21.475Z,100662.22
2023-05-10T04:02:49.468Z,100655.25
2023-05-10T04:05:17.643Z,100647.66
2023-05-10T04:07:45.938Z,100639.56
2023-05-10T04:10:14.278Z,100649.94
2023-05-10T04:12:42.324Z,100659.22
2023-05-10T04:15:11.133Z,100649.84
2023-05-10T04:17:40.734Z,100652.16
2023-05-10T04:20:09.691Z,100654.97
2023-05-10T04:22:37.582Z,100644.88
2023-05-10T04:25:06.420Z,100644.31
2023-05-10T04:27:34.416Z,100647.72
2023-05-10T04:30:02.350Z,100643.50
2023-05-10T04:32:30.349Z,100648.28
2023-05-10T04:34:59.660Z,100646.34
2023-05-10T04:37:27.569Z,100650.00
2023-05-10T04:39:55.437Z,100647.72
2023-05-10T04:42:23.344Z,100653.31
2023-05-10T04:44:51.452Z,100655.03
2023-05-10T04:47:19.341Z,100646.59
2023-05-10T04:49:47.277Z,100650.00
2023-05-10T04:52:18.463Z,100649.44
2023-05-10T04:54:46.447Z,100644.94
2023-05-10T04:57:14.357Z,100644.38
2023-05-10T04:59:42.304Z,100652.25
2023-05-10T05:02:10.291Z,100662.34
2023-05-10T05:04:38.249Z,100656.41
2023-05-10T05:07:06.195Z,100651.09
2023-05-10T05:09:35.567Z,100649.44
2023-05-10T05:12:03.560Z,100646.91
2023-05-10T05:14:31.469Z,100648.91
2023-05-10T05:16:59.351Z,100653.34
2023-05-10T05:19:27.246Z,100661.50
2023-05-10T05:21:55.158Z,100661.22
2023-05-10T05:24:23.084Z,100654.25
2023-05-10T05:26:52.367Z,100662.34
2023-05-10T05:29:20.310Z,100661.81
2023-05-10T05:31:48.293Z,100661.81
2023-05-10T05:34:16.177Z,100654.78
2023-05-10T05:36:44.091Z,100653.03
2023-05-10T05:39:11.976Z,100654.47
2023-05-10T05:41:39.896Z,100659.03
2023-05-10T05:44:09.224Z,100653.97
2023-05-10T05:46:37.152Z,100658.47
2023-05-10T05:49:05.152Z,100668.78
2023-05-10T05:51:33.284Z,100663.75
2023-05-10T05:54:01.244Z,100668.31
2023-05-10T05:56:29.139Z,100673.81
2023-05-10T05:58:57.050Z,100671.91
2023-05-10T06:01:26.367Z,100671.13
2023-05-10T06:03:54.405Z,100661.84
2023-05-10T06:06:22.429Z,100674.16
2023-05-10T06:08:50.434Z,100670.53
2023-05-10T06:11:18.341Z,100682.00
2023-05-10T06:13:46.569Z,100676.38
2023-05-10T06:16:14.711Z,100679.72
2023-05-10T06:18:44.022Z,100677.72
2023-05-10T06:21:12.051Z,100685.31
2023-05-10T06:23:39.930Z,100680.38
2023-05-10T06:26:08.000Z,100686.31
2023-05-10T06:28:36.012Z,100685.44
2023-05-10T06:31:04.005Z,100690.78
2023-05-10T06:33:32.165Z,100692.75
2023-05-10T06:36:01.777Z,100699.09
2023-05-10T06:38:29.668Z,100696.59
2023-05-10T06:40:58.141Z,100691.06
2023-05-10T06:43:27.436Z,100695.03
2023-05-10T06:45:55.357Z,100708.50
2023-05-10T06:48:23.321Z,100699.78
2023-05-10T06:50:51.307Z,100709.06
2023-05-10T06:53:20.664Z,100711.00
2023-05-10T06:55:48.634Z,100708.47
2023-05-10T06:58:16.960Z,100704.22
2023-05-10T07:00:46.365Z,100701.72
2023-05-10T07:03:14.385Z,100697.25
2023-05-10T07:05:42.675Z,100696.41
2023-05-10T07:08:10.815Z,100692.47
2023-05-10T07:10:40.279Z,100710.19
2023-05-10T07:13:08.222Z,100708.19
2023-05-10T07:15:36.225Z,100705.09
2023-05-10T07:18:05.609Z,100714.13
2023-05-10T07:20:33.652Z,100721.41
2023-05-10T07:23:03.237Z,100723.06
2023-05-10T07:25:31.136Z,100729.47
2023-05-10T07:28:00.433Z,100736.47
2023-05-10T07:30:28.482Z,100736.03
2023-05-10T07:32:56.466Z,100743.28
2023-05-10T07:35:24.396Z,100732.31
2023-05-10T07:37:54.801Z,100730.91
2023-05-10T07:40:23.031Z,100747.47
2023-05-10T07:42:50.974Z,100745.28
2023-05-10T07:45:20.351Z,100748.13
2023-05-10T07:47:48.336Z,100744.09
2023-05-10T07:50:16.471Z,100755.88
2023-05-10T07:52:44.595Z,100759.13
2023-05-10T07:55:12.537Z,100762.59
2023-05-10T07:57:40.528Z,100761.59
2023-05-10T08:00:09.641Z,100775.66
2023-05-10T08:02:39.112Z,100764.63
2023-05-10T08:05:07.965Z,100772.34
2023-05-10T08:07:35.913Z,100777.88
2023-05-10T08:10:03.911Z,100785.81
2023-05-10T08:12:32.485Z,100783.34
2023-05-10T08:15:00.405Z,100780.25
2023-05-10T08:17:28.491Z,100783.13
2023-05-10T08:19:57.922Z,100780.19
2023-05-10T08:22:25.865Z,100788.66
2023-05-10T08:24:53.812Z,100779.75
2023-05-10T08:27:21.743Z,100790.88
2023-05-10T08:29:50.600Z,100799.47
2023-05-10T08:32:18.750Z,100797.22
2023-05-10T08:34:46.716Z,100803.66
2023-05-10T08:37:16.034Z,100799.41
2023-05-10T08:39:44.031Z,100803.38
2023-05-10T08:42:12.400Z,100797.50
2023-05-10T08:44:40.718Z,100806.00
2023-05-10T08:47:09.243Z,100812.34
2023-05-10T08:49:37.882Z,100809.53
2023-05-10T08:52:06.621Z,100807.03
2023-05-10T08:54:36.594Z,100814.50
2023-05-10T08:57:04.664Z,100819.69
2023-05-10T08:59:32.992Z,100818.97
2023-05-10T09:02:01.309Z,100822.84
2023-05-10T09:04:30.191Z,100821.63
2023-05-10T09:06:58.352Z,100835.84
2023-05-10T09:09:26.464Z,100834.50
2023-05-10T09:11:56.484Z,100832.75
2023-05-10T09:14:25.945Z,100830.69
2023-05-10T09:16:55.274Z,100834.03
2023-05-10T09:19:23.213Z,100843.22
2023-05-10T09:21:51.602Z,100853.81
2023-05-10T09:24:19.559Z,100857.75
2023-05-10T09:26:50.841Z,100860.13
2023-05-10T09:29:20.292Z,100860.69
2023-05-10T09:31:52.124Z,100869.97
2023-05-10T09:34:21.318Z,100863.47
2023-05-10T09:36:53.915Z,100864.66
2023-05-10T09:39:22.473Z,100873.06
2023-05-10T09:41:50.490Z,100865.00
2023-05-10T09:44:22.867Z,100866.63
2023-05-10T09:46:53.824Z,100870.06
2023-05-10T09:49:21.892Z,100871.22
2023-05-10T09:51:49.810Z,100874.56
2023-05-10T09:54:18.556Z,100877.44
2023-05-10T09:56:46.474Z,100877.94
2023-05-10T09:59:14.696Z,100876.81
2023-05-10T10:01:44.185Z,100876.50
2023-05-10T10:04:12.601Z,100875.06
2023-05-10T10:06:41.196Z,100880.22
2023-05-10T10:09:09.385Z,100882.91
2023-05-10T10:11:37.903Z,100886.13
2023-05-10T10:14:06.435Z,100886.66
2023-05-10T10:16:34.880Z,100883.59
2023-05-10T10:19:04.327Z,100886.91
2023-05-10T10:21:32.470Z,100887.59
2023-05-10T10:24:00.482Z,100889.06
2023-05-10T10:26:28.613Z,100886.16
2023-05-10T10:29:04.031Z,100892.88
2023-05-10T10:31:39.938Z,100893.03
2023-05-10T10:34:10.988Z,100900.59
2023-05-10T10:36:46.756Z,100903.72
2023-05-10T10:39:14.932Z,100905.78
2023-05-10T10:41:51.657Z,100905.69
2023-05-10T10:44:36.531Z,100912.19
2023-05-10T10:47:12.372Z,100912.69
2023-05-10T10:49:46.606Z,100905.13
2023-05-10T10:52:27.814Z,100912.38
2023-05-10T10:55:00.893Z,100908.78
2023-05-10T10:57:31.105Z,100904.13
2023-05-10T11:00:21.875Z,100906.41
2023-05-10T11:02:51.185Z,100915.44
2023-05-10T11:05:40.506Z,100907.88
2023-05-10T11:08:20.026Z,100908.06
2023-05-10T11:11:05.559Z,100911.25
2023-05-10T11:13:35.016Z,100908.91
2023-05-10T11:16:13.525Z,100907.81
2023-05-10T11:18:41.590Z,100913.81
2023-05-10T11:21:12.689Z,100917.06
2023-05-10T11:23:57.123Z,100917.50
2023-05-10T11:26:26.565Z,100925.63
2023-05-10T11:28:57.107Z,100926.22
2023-05-10T11:31:27.648Z,100922.59
2023-05-10T11:33:57.705Z,100937.03
2023-05-10T11:36:28.878Z,100923.13
2023-05-10T11:38:57.686Z,100921.47
2023-05-10T11:41:27.048Z,100921.00
2023-05-10T11:43:55.949Z,100928.81
2023-05-10T11:46:25.391Z,100929.88
2023-05-10T11:48:54.903Z,100930.19
2023-05-10T11:51:23.348Z,100926.78
2023-05-10T11:53:54.892Z,100940.47
2023-05-10T11:56:22.914Z,100941.50
2023-05-10T11:58:55.369Z,100940.38
2023-05-10T12:01:24.038Z,100945.00
2023-05-10T12:03:52.946Z,100941.75
2023-05-10T12:06:21.695Z,100951.72
2023-05-10T12:08:53.494Z,100945.31
2023-05-10T12:11:27.042Z,100952.97
2023-05-10T12:13:55.749Z,100952.13
2023-05-10T12:16:24.927Z,100955.75
2023-05-10T12:18:53.417Z,100954.94
2023-05-10T12:21:22.401Z,100952.69
2023-05-10T12:23:52.521Z,100961.13
2023-05-10T12:26:22.320Z,100961.69
2023-05-10T12:28:50.245Z,100968.81
2023-05-10T12:31:18.203Z,100964.94
2023-05-10T12:33:47.357Z,100964.69
2023-05-10T12:36:16.815Z,100967.25
2023-05-10T12:38:48.809Z,100969.88
2023-05-10T12:41:18.152Z,100959.72
2023-05-10T12:43:47.636Z,100966.75
2023-05-10T12:46:16.994Z,100970.06
2023-05-10T12:48:46.435Z,100970.09
2023-05-10T12:51:16.702Z,100970.13
2023-05-10T12:53:49.384Z,100972.41
2023-05-10T12:56:17.585Z,100971.50
2023-05-10T12:58:49.038Z,100974.56
2023-05-10T13:01:18.626Z,100974.22
2023-05-10T13:03:49.307Z,100981.56
2023-05-10T13:06:17.309Z,100985.13
2023-05-10T13:08:45.210Z,100979.53
2023-05-10T13:11:17.536Z,100980.09
2023-05-10T13:13:45.711Z,100988.00
2023-05-10T13:16:13.721Z,100982.28
2023-05-10T13:18:43.204Z,100990.53
2023-05-10T13:21:12.264Z,100985.25
2023-05-10T13:23:40.180Z,100992.09
2023-05-10T13:26:08.093Z,100986.47
2023-05-10T13:28:36.019Z,100989.25
2023-05-10T13:31:03.973Z,100992.34
2023-05-10T13:33:31.923Z,100985.88
2023-05-10T13:36:01.290Z,100976.25
2023-05-10T13:38:29.303Z,100980.56
2023-05-10T13:40:57.296Z,100977.94
2023-05-10T13:43:26.065Z,100989.75
2023-05-10T13:45:54.032Z,100988.66
2023-05-10T13:48:22.142Z,100980.00
2023-05-10T13:50:50.069Z,100984.03
2023-05-10T13:53:19.429Z,100980.38
2023-05-10T13:55:47.312Z,100970.22
2023-05-10T13:58:15.279Z,100972.41
2023-05-10T14:00:43.209Z,100967.69
2023-05-10T14:03:12.112Z,100975.13
2023-05-10T14:05:40.936Z,100972.88
2023-05-10T14:08:10.439Z,100971.69
2023-05-10T14:10:40.440Z,100968.66
2023-05-10T14:13:08.922Z,100979.28
2023-05-10T14:15:36.877Z,100974.50
2023-05-10T14:18:05.107Z,100980.09
2023-05-10T14:20:34.669Z,100982.44
2023-05-10T14:23:02.612Z,100987.56
2023-05-10T14:25:30.554Z,100983.34
2023-05-10T14:27:59.823Z,100985.91
2023-05-10T14:30:28.073Z,100999.69
2023-05-10T14:32:59.520Z,100988.69
2023-05-10T14:35:27.524Z,100989.50
2023-05-10T14:37:55.503Z,100985.00
2023-05-10T14:40:23.828Z,100990.94
2023-05-10T14:42:53.906Z,100987.00
2023-05-10T14:45:23.530Z,100990.41
2023-05-10T14:47:51.763Z,100989.84
2023-05-10T14:50:35.190Z,101002.81
2023-05-10T14:53:04.314Z,101010.13
2023-05-10T14:55:32.269Z,101008.97
2023-05-10T14:58:00.305Z,101015.75
2023-05-10T15:00:31.570Z,101006.72
2023-05-10T15:03:02.457Z,101011.25
2023-05-10T15:05:30.888Z,101013.50
2023-05-10T15:07:59.307Z,101016.03
2023-05-10T15:10:27.228Z,101019.44
2023-05-10T15:12:55.104Z,101023.66
2023-05-10T15:15:23.086Z,101016.88
2023-05-10T15:17:52.427Z,101025.59
2023-05-10T15:20:20.409Z,101027.28
2023-05-10T15:22:48.411Z,101029.84
2023-05-10T15:25:16.929Z,101026.75
2023-05-10T15:27:45.564Z,101028.13
2023-05-10T15:30:14.305Z,101030.97
2023-05-10T15:32:42.246Z,101032.38
2023-05-10T15:35:12.168Z,101038.84
2023-05-10T15:37:40.222Z,101042.22
2023-05-10T15:40:09.548Z,101045.06
2023-05-10T15:42:37.458Z,101045.03
2023-05-10T15:45:07.103Z,101044.69
2023-05-10T15:47:35.226Z,101044.72
2023-05-10T15:50:03.670Z,101051.78
2023-05-10T15:52:33.116Z,101052.34
2023-05-10T15:55:01.058Z,101051.25
2023-05-10T15:57:28.954Z,101050.69
2023-05-10T15:59:57.908Z,101060.84
2023-05-10T16:02:26.140Z,101064.22
2023-05-10T16:04:54.089Z,101059.72
2023-05-10T16:07:21.998Z,101071.25
2023-05-10T16:09:51.367Z,101076.06
2023-05-10T16:12:21.792Z,101073.78
2023-05-10T16:14:49.751Z,101087.25
2023-05-10T16:17:17.840Z,101086.91
2023-05-10T16:19:45.825Z,101093.88
2023-05-10T16:22:13.728Z,101093.38
2023-05-10T16:24:42.467Z,101105.09
2023-05-10T16:27:13.252Z,101101.72
2023-05-10T16:29:41.177Z,101102.63
2023-05-10T16:32:09.098Z,101106.03
2023-05-10T16:34:37.024Z,101112.91
2023-05-10T16:37:04.959Z,101117.34
2023-05-10T16:39:32.907Z,101108.69
2023-05-10T16:42:01.180Z,101118.94
2023-05-10T16:44:30.614Z,101122.34
2023-05-10T16:46:58.876Z,101118.69
2023-05-10T16:49:27.648Z,101123.75
2023-05-10T16:51:55.587Z,101132.94
2023-05-10T16:54:23.588Z,101134.66
2023-05-10T16:56:51.826Z,101139.81
2023-05-10T16:59:19.800Z,101142.47
2023-05-10T17:01:49.254Z,101139.44
2023-05-10T17:04:17.807Z,101145.97
2023-05-10T17:06:45.774Z,101139.91
2023-05-10T17:09:13.880Z,101151.13
2023-05-10T17:11:42.004Z,101157.97
2023-05-10T17:14:10.313Z,101157.06
2023-05-10T17:16:38.316Z,101163.19
2023-05-10T17:19:07.834Z,101161.84
2023-05-10T17:21:35.768Z,101161.75
2023-05-10T17:24:03.687Z,101167.88
2023-05-10T17:26:31.717Z,101178.38
2023-05-10T17:28:59.900Z,101179.88
2023-05-10T17:31:28.276Z,101175.69
2023-05-10T17:33:56.260Z,101180.81
2023-05-10T17:36:25.570Z,101188.84
2023-05-10T17:38:53.555Z,101191.28
2023-05-10T17:41:21.773Z,101190.53
2023-05-10T17:43:49.675Z,101199.50
2023-05-10T17:46:17.725Z,101193.25
2023-05-10T17:48:45.850Z,101193.47
2023-05-10T17:51:13.746Z,101204.75
2023-05-10T17:53:43.140Z,101210.53
2023-05-10T17:56:11.331Z,101209.28
2023-05-10T17:58:39.254Z,101217.31
2023-05-10T18:01:07.346Z,101224.88
2023-05-10T18:03:36.046Z,101221.16
2023-05-10T18:06:04.375Z,101229.00
2023-05-10T18:08:33.116Z,101225.06
2023-05-10T18:11:02.375Z,101231.34
2023-05-10T18:13:30.309Z,101233.34
2023-05-10T18:15:58.209Z,101238.78
2023-05-10T18:18:26.235Z,101245.97
2023-05-10T18:20:56.808Z,101245.59
2023-05-10T18:23:24.866Z,101240.69
2023-05-10T18:25:52.894Z,101247.06
2023-05-10T18:28:22.276Z,101245.09
2023-05-10T18:30:50.167Z,101247.31
2023-05-10T18:33:18.085Z,101241.22
2023-05-10T18:35:46.250Z,101249.34
2023-05-10T18:38:14.242Z,101247.91
2023-05-10T18:40:42.803Z,101242.78
2023-05-10T18:43:10.786Z,101250.66
2023-05-10T18:45:40.187Z,101251.50
2023-05-10T18:48:08.377Z,101246.41
2023-05-10T18:50:36.377Z,101249.03
2023-05-10T18:53:04.596Z,101257.91
2023-05-10T18:55:32.504Z,101253.56
2023-05-10T18:58:00.489Z,101255.94
2023-05-10T19:00:28.523Z,101262.34
2023-05-10T19:02:57.952Z,101270.00
2023-05-10T19:05:29.952Z,101267.50
2023-05-10T19:07:58.009Z,101273.19
2023-05-10T19:10:25.952Z,101276.56
2023-05-10T19:12:53.875Z,101276.00
2023-05-10T19:15:22.256Z,101272.06
2023-05-10T19:17:50.703Z,101282.13
2023-05-10T19:20:20.252Z,101284.34
2023-05-10T19:23:02.215Z,101286.59
2023-05-10T19:25:36.070Z,101295.53
2023-05-10T19:28:04.194Z,101296.06
2023-05-10T19:30:32.242Z,101296.84
2023-05-10T19:33:00.172Z,101299.91
2023-05-10T19:35:29.631Z,101300.75
2023-05-10T19:37:57.512Z,101303.25
2023-05-10T19:40:25.438Z,101309.38
2023-05-10T19:42:53.941Z,101320.53
2023-05-10T19:45:22.395Z,101322.44
2023-05-10T19:47:50.355Z,101322.69
2023-05-10T19:50:18.871Z,101319.31
2023-05-10T19:52:49.120Z,101329.38
2023-05-10T19:55:27.194Z,101318.88
2023-05-10T19:57:55.156Z,101326.69
2023-05-10T20:00:23.281Z,101330.63
2023-05-10T20:02:51.436Z,101325.25
2023-05-10T20:05:19.481Z,101326.03
2023-05-10T20:07:48.921Z,101333.25
2023-05-10T20:10:17.496Z,101329.72
2023-05-10T20:12:51.059Z,101331.63
2023-05-10T20:15:20.127Z,101333.31
2023-05-10T20:17:48.433Z,101339.25
2023-05-10T20:20:17.055Z,101335.88
2023-05-10T20:22:45.389Z,101330.69
2023-05-10T20:25:15.148Z,101341.50
2023-05-10T20:27:43.080Z,101332.34
2023-05-10T20:30:11.826Z,101332.84
2023-05-10T20:32:40.138Z,101329.13
2023-05-10T20:35:08.627Z,101331.16
2023-05-10T20:37:37.835Z,101331.63
2023-05-10T20:40:06.894Z,101338.06
2023-05-10T20:42:36.215Z,101327.56
2023-05-10T20:45:04.542Z,101327.81
2023-05-10T20:47:32.605Z,101332.00
2023-05-10T20:50:00.544Z,101332.97
2023-05-10T20:52:28.441Z,101325.69
2023-05-10T20:54:56.411Z,101339.06
2023-05-10T20:57:24.334Z,101323.69
2023-05-10T20:59:54.670Z,101335.28
2023-05-10T21:02:22.580Z,101330.22
2023-05-10T21:04:50.530Z,101332.19
2023-05-10T21:07:18.463Z,101335.41
2023-05-10T21:09:46.386Z,101334.66
2023-05-10T21:12:14.512Z,101335.69
2023-05-10T21:14:43.077Z,101334.22
2023-05-10T21:17:12.328Z,101328.09
2023-05-10T21:19:40.197Z,101337.38
2023-05-10T21:22:08.111Z,101332.44
2023-05-10T21:24:36.094Z,101340.50
2023-05-10T21:27:04.756Z,101340.84
2023-05-10T21:29:32.655Z,101345.91
2023-05-10T21:32:01.224Z,101345.06
2023-05-10T21:34:31.114Z,101356.03
2023-05-10T21:36:59.064Z,101348.00
2023-05-10T21:39:26.956Z,101343.09
2023-05-10T21:41:54.850Z,101346.25
2023-05-10T21:44:22.778Z,101348.38
2023-05-10T21:46:50.713Z,101343.97
2023-05-10T21:49:18.931Z,101345.19
2023-05-10T21:51:48.653Z,101343.81
2023-05-10T21:54:16.575Z,101349.53
2023-05-10T21:56:44.985Z,101358.13
2023-05-10T21:59:12.905Z,101352.22
2023-05-10T22:01:41.191Z,101355.88
2023-05-10T22:04:09.432Z,101350.97
2023-05-10T22:06:37.347Z,101355.47
2023-05-10T22:09:06.717Z,101356.81
2023-05-10T22:11:34.651Z,101356.56
2023-05-10T22:14:02.892Z,101361.16
2023-05-10T22:16:31.081Z,101366.38
2023-05-10T22:18:59.147Z,101362.19
2023-05-10T22:21:27.115Z,101357.50
2023-05-10T22:23:55.023Z,101356.53
2023-05-10T22:26:24.298Z,101354.06
2023-05-10T22:28:52.189Z,101361.84
2023-05-10T22:31:20.172Z,101358.97
2023-05-10T22:33:48.127Z,101355.56
2023-05-10T22:36:16.751Z,101359.97
2023-05-10T22:38:44.714Z,101361.31
2023-05-10T22:41:12.685Z,101365.22
2023-05-10T22:43:42.126Z,101367.25
2023-05-10T22:46:10.059Z,101371.47
2023-05-10T22:48:37.978Z,101371.75
2023-05-10T22:51:05.978Z,101372.38
2023-05-10T22:53:33.896Z,101369.50
2023-05-10T22:56:01.862Z,101371.69
2023-05-10T22:58:29.921Z,101370.25
2023-05-10T23:00:59.436Z,101374.91
2023-05-10T23:03:27.434Z,101371.41
2023-05-10T23:05:55.360Z,101376.50
2023-05-10T23:08:23.503Z,101378.53
2023-05-10T23:10:51.731Z,101379.66
2023-05-10T23:13:21.037Z,101386.84
2023-05-10T23:15:49.084Z,101383.09
2023-05-10T23:18:18.684Z,101386.19
2023-05-10T23:20:46.702Z,101384.50
2023-05-10T23:23:14.606Z,101386.91
2023-05-10T23:25:42.502Z,101388.09
2023-05-10T23:28:10.856Z,101392.13
2023-05-10T23:30:38.762Z,101387.59
2023-05-10T23:33:06.700Z,101397.31
2023-05-10T23:35:36.217Z,101400.81
2023-05-10T23:38:04.099Z,101395.50
2023-05-10T23:40:32.030Z,101399.16
2023-05-10T23:42:59.932Z,101396.00
2023-05-10T23:45:27.983Z,101401.03
2023-05-10T23:47:56.051Z,101400.22
2023-05-10T23:50:24.027Z,101400.16
2023-05-10T23:52:53.303Z,101405.97
2023-05-10T23:55:21.423Z,101408.09
2023-05-10T23:57:49.335Z,101396.53
